SiktMolnbas
>≥ 10km≥ 10km ≥ 2000ft≥ 2000ft
< 10km< 10km < 2000ft< 2000ft
< 8km< 8km < 1500ft< 1500ft
< 5km< 5km < 1000ft< 1000ft
< 3km< 3km < 500ft< 500ft

Nytt 18 jan 2017:

Nytt 17 jan 2017:

ESNQ (07:50 UTC)

Kiruna flygplats

METAR

ESNQ 220750Z AUTO 35006KT 320V020 9999 NCD 19/14 Q1004=

TAF

SHRACB

ESNQ 220830Z 2209/2218 01005KT CAVOK PROB40 2213/2218 SHRA BKN060CB=

ESNG (07:50 UTC)

Gällivare (Kavaheden), Lapland Airport

METAR

ESNG 220750Z AUTO VRB01KT 9999 SCT023/// OVC031/// 22/15 Q1003=

TAF

Ingen TAF hittades.

ESPA (07:50 UTC)

Luleå Airport (Kallax)

METAR

ESPA 220750Z 34004KT 9999 FEW017 BKN027 20/19 Q1002=

TAF

SHRACB

ESPA 220830Z 2209/2218 35005KT 9999 BKN030 TEMPO 2209/2218 SHRA BKN050CB=

ESNL (07:50 UTC)

Lycksele flygplats

METAR

ESNL 220750Z AUTO 34004KT 300V030 9999 FEW094/// 24/15 Q1003=

TAF

Ingen TAF hittades.

ESNU (07:50 UTC)

Umeå City Airport

METAR

RATCU

ESNU 220750Z 27004KT 9999 -RA FEW010 SCT020TCU 20/19 Q1002=

TAF

TSCB

ESNU 220830Z 2209/2218 30005KT 9999 BKN035 TEMPO 2209/2218 TSRA BKN012 BKN040CB=

ESNO (07:50 UTC)

Örnsköldsvik flygplats

METAR

ESNO 220750Z AUTO 00000KT 9999 FEW009/// BKN016/// BKN120/// 20/19 Q1003=

TAF

Ingen TAF hittades.

ESNK (07:50 UTC)

Kramfors-Sollefteå flygplats

METAR

ESNK 220750Z AUTO 20003KT 150V220 9999 OVC021/// 20/15 Q1004=

TAF

Ingen TAF hittades.

ESNN (07:50 UTC)

Sundsvall-Härnösands flygplats (Midlanda)

METAR

RA

ESNN 220750Z 24002KT 6000 -RA SCT009 OVC092 18/17 Q1004=

TAF

Ingen TAF hittades.

ESNZ (07:50 UTC)

Åre Östersund Airport (Frösön)

METAR

ESNZ 220750Z 30008KT CAVOK 15/12 Q1006=

TAF

ESNZ 220830Z 2209/2218 30008KT CAVOK=

ESNS (07:50 UTC)

Skellefteå flygplats

METAR

ESNS 220750Z AUTO 36003KT 320V030 9999 BKN007/// BKN011/// OVC072/// 21/20 Q1002=

TAF

Ingen TAF hittades.

ESGG (07:50 UTC)

Göteborg-Landvetter flygplats

METAR

ESGG 220750Z 23014KT 9999 BKN017 17/12 Q1010=

TAF

Ingen TAF hittades.

ESMT (07:50 UTC)

Halmstads flygplats

METAR

ESMT 220750Z AUTO 28011KT 9999 FEW020/// SCT092/// 20/14 Q1011=

TAF

ESMT RRY 220729Z 2208/2215 28010KT 9999 SCT040=

ESTA (07:20 UTC)

Ängelholm-Helsingborg flygplats

METAR

ESTA 220720Z AUTO 29010KT 9999 NCD 21/13 Q1011=

TAF

Ingen TAF hittades.

ESTL (07:50 UTC)

Ljungbyheds flygplats

METAR

ESTL 220750Z AUTO 32010KT 9999 FEW110/// 22/14 Q1011=

TAF

Ingen TAF hittades.

ESMS (07:50 UTC)

Malmö Airport

METAR

ESMS 220750Z 26005KT 220V300 CAVOK 22/14 Q1012=

TAF

ESMS 220515Z 2206/2306 VRB03KT CAVOK BECMG 2206/2209 22010KT BECMG 2217/2220 VRB03KT=

ESMK (07:50 UTC)

Kristianstad Airport

METAR

ESMK 220750Z AUTO 26006KT 230V290 9999 NCD 23/// Q1011=

TAF

Ingen TAF hittades.

ESDF (07:50 UTC)

Ronneby flygplats

METAR

ESDF 220750Z AUTO 22008KT 190V250 9999 NCD 23/13 Q1011=

TAF

Ingen TAF hittades.

ESMQ (07:50 UTC)

Kalmar Airport

METAR

ESMQ 220750Z AUTO 21008KT 9999 NCD 24/12 Q1011=

TAF

Ingen TAF hittades.

ESMX (07:50 UTC)

Växjö, Smaland Airport

METAR

ESMX 220750Z 22010KT 190V250 CAVOK 22/12 Q1011=

TAF

ESMX 220830Z 2209/2218 21010KT CAVOK=

ESGJ (07:50 UTC)

Jönköping Airport

METAR

ESGJ 220750Z AUTO 23014KT 9999 FEW019/// OVC027/// 19/13 Q1010=

TAF

Ingen TAF hittades.

ESSA (07:50 UTC)

Stockholm-Arlanda flygplats

METAR

ESSA 220750Z 23009KT 9999 FEW026 20/14 Q1007 NOSIG=

TAF

ESSA 220530Z 2206/2306 25012KT CAVOK BECMG 2219/2221 VRB02KT=

ESSB (07:50 UTC)

Stockholm-Bromma flygplats

METAR

ESSB 220750Z AUTO 24008KT 200V270 9999 FEW220/// 21/14 Q1008=

TAF

ESSB 220830Z 2209/2218 26009KT CAVOK=

ESKN (07:50 UTC)

Stockholm-Skavsta flygplats

METAR

ESKN 220750Z 29009KT 250V340 9999 SCT030 21/13 Q1008=

TAF

ESKN 220530Z 2206/2306 26010KT CAVOK PROB40 2214/2218 16010KT BECMG 2220/2222 VRB03KT=

ESSP (07:50 UTC)

Norrköping flygplats

METAR

ESSP 220750Z AUTO 26013KT 9999 SCT030/// 21/13 Q1008=

TAF

ESSP 220230Z 2203/2207 24006KT CAVOK=

ESSL (07:50 UTC)

Linköping - SAAB Flygplats

METAR

ESSL 220750Z AUTO 26010KT 220V310 9999 FEW030/// 20/12 Q1009=

TAF

ESSL RRA 220330Z 2204/2206 27003KT CAVOK=

ESSV (07:50 UTC)

Visby flygplats

METAR

ESSV 220750Z 28007KT 240V310 CAVOK 21/12 Q1010=

TAF

ESSV 220830Z 2209/2218 26010KT CAVOK=

ESOW (07:50 UTC)

Stockholm-Västerås flygplats

METAR

ESOW 220750Z 26008KT 220V300 9999 FEW023 21/13 Q1007=

TAF

ESOW 220830Z 2209/2214 24010KT CAVOK=

ESOE (07:50 UTC)

Örebro flygplats

METAR

ESOE 220750Z AUTO 22008KT 180V250 9999 FEW020/// SCT027/// BKN034/// 20/15 Q1008=

TAF

Ingen TAF hittades.

ESOK (07:50 UTC)

Karlstad Airport

METAR

ESOK 220750Z AUTO 23004KT 9999 SCT022/// OVC027/// 18/13 Q1007=

TAF

Ingen TAF hittades.

ESSD (07:50 UTC)

Borlänge, Dala Airport

METAR

ESSD 220750Z AUTO 27007KT 9999 NCD 19/14 Q1007=

TAF

Ingen TAF hittades.

ESGR (07:50 UTC)

Skövde flygplats

METAR

ESGR 220750Z AUTO 23009KT 9999 BKN031/// 21/09 Q1008=

TAF

Ingen TAF hittades.

ESIB (07:50 UTC)

Såtenäs

METAR

ESIB 220750Z AUTO 22015KT 9999 OVC026/// 18/14 Q1008=

TAF

Ingen TAF hittades.

ESNV (07:50 UTC)

Vilhelmina flygplats

METAR

ESNV 220750Z AUTO VRB04KT 9999 FEW030/// 21/13 Q1004=

TAF

Ingen TAF hittades.

ESST (07:50 UTC)

Torsby flygplats (Fryklanda)

METAR

ESST 220750Z AUTO 16004KT 110V180 9999 OVC023/// 19/14 Q1007=

TAF

Ingen TAF hittades.

ESUT (07:50 UTC)

Hemavans flygplats

METAR

ESUT 220750Z AUTO 32003KT 270V040 9999 FEW022/// 18/12 Q1006=

TAF

Ingen TAF hittades.

ESNX (07:50 UTC)

Arvidsjaur flygplats

METAR

ESNX 220750Z AUTO 36006KT 9999 FEW057/// 22/14 Q1004=

TAF

Ingen TAF hittades.

ESIA (07:50 UTC)

Karlsborg

METAR

ESIA 220750Z AUTO 26011KT 210V290 9999 SCT033/// 20/12 Q1008=

TAF

Ingen TAF hittades.

ESUP (07:50 UTC)

Pajala

METAR

ESUP 220750Z AUTO VRB02KT 9999 FEW002/// SCT003/// OVC004/// 19/18 Q1003=

TAF

Ingen TAF hittades.

ESPE (07:50 UTC)

Vidsel

METAR

ESPE 220750Z AUTO 16003KT 130V190 9999 NCD 20/18 Q1004=

TAF

Ingen TAF hittades.

ESCM (07:50 UTC)

Uppsala

METAR

ESCM 220750Z AUTO 24007KT 9999 NCD 21/14 Q1007=

TAF

Ingen TAF hittades.

ESKM (07:50 UTC)

Mora/Siljan

METAR

ESKM 220750Z AUTO VRB02KT 9999 NCD 22/14 Q1006=

TAF

Ingen TAF hittades.

EKRN (07:50 UTC)

Bornholm Airport

METAR

EKRN 220750Z AUTO 18005KT 9999NDV BKN085/// 21/18 Q1013=

TAF

EKRN 220523Z 2206/2215 VRB03KT CAVOK=

EFIV (07:50 UTC)

Ivalo Airport

METAR

EFIV 220750Z AUTO VRB02KT 9999 SCT008 BKN056 21/18 Q1004=

TAF

Ingen TAF hittades.

EFKT (07:50 UTC)

Kittilä Airport

METAR

SHRA

EFKT 220750Z AUTO 08004KT 9999 -SHRA FEW010 SCT031 OVC053 //////CB 20/18 Q1003=

TAF

TSBRCB

EFKT AAB 220319Z 2203/2207 16003KT 8000 SCT002 BKN020 TEMPO 2203/2207 3000 BR BKN002 SCT020CB PROB30 2203/2207 TSRA=

EFRO (07:50 UTC)

Rovaniemi Airport

METAR

SHRACB

EFRO 220750Z AUTO VRB03KT 110V180 9000 -SHRA FEW001 SCT009 BKN014 BKN028CB 20/19 Q1003 RESHRA=

TAF

TSSHRABRCB

EFRO AAA 220723Z 2207/2306 12005KT 8000 SCT003 BKN015 TEMPO 2207/2215 4000 SHRA BKN010 SCT020CB PROB40 2207/2215 +TSRA TEMPO 2215/2221 SCT030CB PROB30 2215/2221 TSRA TEMPO 2221/2303 BKN005 PROB40 2221/2303 2500 BR BKN004=

EFKE (07:50 UTC)

Kemi-Tornio Airport

METAR

EFKE 220750Z 18009KT 9999 BKN009 BKN054 22/20 Q1002=

TAF

TSSHRACB

EFKE 220531Z 2206/2215 10005KT 9999 FEW004 OVC015 TEMPO 2206/2209 4000 TSRA BKN008 SCT020CB TEMPO 2209/2215 SHRA BKN012 SCT020CB PROB40 2209/2215 4000 TSRA=

EFKS (07:50 UTC)

Kuusamo Airport

METAR

EFKS 220750Z AUTO 11008KT 9999 OVC008 18/17 Q1005=

TAF

Ingen TAF hittades.

EFOU (07:50 UTC)

Oulu Airport

METAR

EFOU 220750Z AUTO 19007KT 140V220 9999 FEW015/// SCT034/// OVC091/// 24/19 Q1002=

TAF

TSSHRABRCB

EFOU 220531Z 2206/2306 15008KT 9999 FEW008 SCT025 TEMPO 2206/2209 SHRA BKN008 SCT025CB TEMPO 2209/2218 7000 SHRA SCT025CB PROB40 2209/2218 TSRA PROB40 2300/2306 3000 BR BKN004=

EFKI (07:50 UTC)

Kajaani Airport

METAR

CB

EFKI 220750Z 17005KT 090V220 9999 SCT020CB BKN060 23/19 Q1004=

TAF

TSSHRACB

EFKI AAA 220552Z 2206/2215 15006KT 9999 FEW006 BKN015 TEMPO 2206/2209 SHRA BKN009 SCT020CB TEMPO 2209/2215 SHRA SCT020CB PROB40 2209/2215 7000 TSRA=

EFKK (07:50 UTC)

Kokkola-Pietarsaari/Kruunupyy Airport

METAR

EFKK 220750Z AUTO 16011KT 9999 FEW009 SCT016 BKN055 BKN075 21/20 Q1003=

TAF

TSSHRACB

EFKK 220531Z 2206/2215 17007KT 9999 SCT003 BKN015 TEMPO 2206/2209 BKN004 SCT020CB TEMPO 2209/2215 SHRA SCT020CB PROB40 2209/2215 7000 TSRA=

EFVA (07:50 UTC)

Vaasa Airport

METAR

EFVA 220750Z AUTO 21011KT 9999 FEW018/// BKN027/// 22/17 Q1003=

TAF

TSBRCB

EFVA 220531Z 2206/2306 21008KT 9999 BKN020 TEMPO 2206/2209 BKN008 SCT030CB TEMPO 2209/2218 SCT030CB PROB40 2209/2215 4000 TSRA TEMPO 2218/2224 BKN012 TEMPO 2300/2306 2000 BR BKN003=

EFKU (07:50 UTC)

Kuopio Airport

METAR

EFKU 220750Z AUTO 18014KT CAVOK 23/18 Q1006=

TAF

SHRACB

EFKU 220531Z 2206/2306 18005KT 9999 BKN015 TEMPO 2206/2209 BKN005 SCT020CB TEMPO 2209/2212 SHRA SCT020CB=

EFJY (07:50 UTC)

Jyväskylä Airport

METAR

EFJY 220750Z AUTO 19005KT 130V240 9999 BKN012 BKN050 21/18 Q1006=

TAF

BRCB

EFJY 220527Z 2206/2306 22007KT 9999 FEW010 BKN025 TEMPO 2209/2214 SCT035CB PROB40 TEMPO 2300/2305 3000 BR FEW002=

EFTP (07:50 UTC)

Tampere-Pirkkala Airport

METAR

EFTP 220750Z AUTO 20008KT 9999 FEW014 BKN021 BKN029 22/18 Q1007=

TAF

BRCB

EFTP 220527Z 2206/2306 22009KT 9999 SCT010 TEMPO 2209/2213 SCT030CB PROB40 TEMPO 2300/2305 1200 BR SCT002=

EFPO (07:50 UTC)

Pori Airport

METAR

EFPO 220750Z AUTO 22010KT 190V270 9999 FEW011/// BKN015/// BKN022/// 21/18 Q1006=

TAF

Ingen TAF hittades.

EFTU (07:50 UTC)

Turku Airport

METAR

EFTU 220750Z AUTO 22010KT CAVOK 24/16 Q1007=

TAF

BRCB

EFTU 220527Z 2206/2306 19008KT CAVOK PROB30 TEMPO 2206/2209 FEW030CB TEMPO 2223/2304 2000 BR FEW002=

EFHK (07:50 UTC)

Helsinki-Vantaa Airport

METAR

EFHK 220750Z 20009KT 9999 SCT023 24/18 Q1008 NOSIG=

TAF

BRCB

EFHK 220527Z 2206/2306 22008KT CAVOK TEMPO 2208/2212 FEW040CB PROB30 TEMPO 2300/2305 3000 BR FEW003=

EFMA (07:50 UTC)

Mariehamn Airport

METAR

EFMA 220750Z AUTO 22009KT 170V260 CAVOK 20/15 Q1007=

TAF

EFMA 220527Z 2206/2215 22010KT CAVOK=

EKSB (07:50 UTC)

Sønderborg Airport

METAR

FG

EKSB 220750Z AUTO 33008KT 0550NDV R14/P1500U R32/P1500N BCFG NCD 22/13 Q1011=

TAF

Ingen TAF hittades.

EKSP (07:50 UTC)

Vojens Airport

METAR

EKSP 220750Z 30004KT 230V040 CAVOK 21/10 Q1012=

TAF

BR

EKSP 220514Z 2206/2306 28007KT 9999 FEW040 TEMPO 2212/2218 29010G20KT TEMPO 2223/2306 4000 BR BKN008=

EKEB (07:50 UTC)

Esbjerg Airport

METAR

EKEB 220750Z AUTO 29005KT 210V340 9999NDV NCD 21/11 Q1012=

TAF

EKEB 220523Z 2206/2215 VRB02KT 9999 SCT025 BECMG 2207/2210 28010KT=

EKYT (07:50 UTC)

Aalborg Airport

METAR

EKYT 220750Z AUTO 26013KT 9999NDV FEW027/// SCT042/// 21/13 Q1010=

TAF

EKYT 220514Z 2206/2306 26015KT 9999 FEW030 TEMPO 2208/2218 27015G25KT TEMPO 2223/2305 BKN008=

EKKA (07:50 UTC)

Karup Airport

METAR

EKKA 220750Z AUTO 27007KT 9999NDV FEW045/// BKN140/// 20/14 Q1012=

TAF

BR

EKKA 220514Z 2206/2306 27008KT 9999 FEW040 TEMPO 2212/2218 28010G20KT TEMPO 2222/2306 4000 BR BKN008=

EKBI (07:50 UTC)

Billund Airport

METAR

EKBI 220750Z AUTO 30005KT 240V320 9999NDV NCD 19/12 Q1012=

TAF

EKBI 220520Z 2206/2306 29008KT 9999 SCT030 BECMG 2223/2301 BKN008 TEMPO 2301/2306 BKN015=

EKOD (07:50 UTC)

Odense Airport

METAR

EKOD 220750Z 30004KT 200V350 CAVOK 21/12 Q1012=

TAF

EKOD RRB 220757Z 2208/2215 30006KT 9999 FEW040=

EKCH (07:50 UTC)

Copenhagen Airport, Kastrup

METAR

EKCH 220750Z 29003KT CAVOK 23/12 Q1012 NOSIG=

TAF

EKCH 220520Z 2206/2306 VRB03KT CAVOK BECMG 2209/2212 18010KT BECMG 2217/2220 VRB03KT=

EKRK (07:50 UTC)

Copenhagen Airport, Roskilde

METAR

EKRK 220750Z AUTO 30005KT 250V010 9999NDV FEW180/// 23/11 Q1012=

TAF

EKRK 220523Z 2206/2215 26006KT CAVOK=

ENRY (07:50 UTC)

Moss flygplats, Rygge

METAR

ENRY 220750Z AUTO VRB01KT 9999NDV OVC023/// 19/13 Q1007=

TAF

ENRY 220500Z 2206/2306 16008KT 9999 FEW010 PROB40 2302/2306 BKN004=

ENGM (07:50 UTC)

Oslo flygplats, Gardermoen

METAR

ENGM 220750Z VRB01KT 9999 FEW011 BKN025 18/15 Q1007 NOSIG=

TAF

ENGM 220500Z 2206/2306 VRB05KT CAVOK PROB40 2206/2207 3000 BCFG BKN004 BECMG 2209/2211 18010KT BECMG 2222/2224 VRB05KT PROB30 2301/2305 2000 BCFG BKN002=

ENTO (07:50 UTC)

Sandefjord flygplats, Torp

METAR

ENTO 220750Z 07005KT 050V120 9999 FEW019 18/13 Q1007=

TAF

ENTO 220500Z 2206/2306 03005KT 9999 FEW010 BECMG 2213/2215 17010KT BECMG 2222/2224 02005KT PROB40 2300/2305 1500 BCFG BKN002=

ENCN (07:50 UTC)

Kristiansand flygplats, Kjevik

METAR

ENCN 220750Z 26014KT CAVOK 19/09 Q1008=

TAF

ENCN 220500Z 2206/2215 28008KT CAVOK=

ENZV (07:50 UTC)

Stavanger-Sola flygplats

METAR

ENZV 220750Z 28004KT 9999 FEW015 SCT030 17/10 Q1010 NOSIG=

TAF

ENZV 220500Z 2206/2306 24005KT 9999 FEW010 BKN025 PROB30 TEMPO 2215/2303 BKN012=

ENHD (07:50 UTC)

Haugesund flygplats, Karmøy

METAR

ENHD 220750Z 22005KT 9999 FEW009 BKN027 16/11 Q1010=

TAF

ENHD 220500Z 2206/2215 23007KT 9999 FEW015 BKN020=

ENBR (07:50 UTC)

Bergen flygplats, Flesland

METAR

ENBR 220750Z 14005KT 110V180 9999 FEW013 BKN032 16/13 Q1009 NOSIG RMK WIND 1200FT 14010KT=

TAF

DZBR

ENBR 220500Z 2206/2306 22005KT 9999 FEW010 BKN020 BECMG 2215/2217 BKN012 TEMPO 2216/2224 3000 DZRA BR BKN005=

ENOV (07:20 UTC)

Ørsta-Volda flygplats, Hovden

METAR

ENOV 220720Z VRB02KT 9999 FEW014 SCT026 BKN041 16/12 Q1007 RMK WIND 2175FT 15007KT=

TAF

Ingen TAF hittades.

ENML (07:50 UTC)

Molde flygplats, Årø

METAR

ENML 220750Z AUTO VRB03KT 9999NDV FEW064/// 18/13 Q1007=

TAF

Ingen TAF hittades.

ENKB (07:50 UTC)

Kristiansund flygplats, Kvernberget

METAR

ENKB 220750Z 27009KT 240V310 9999 FEW008 SCT012 BKN016 15/12 Q1007 RMK WIND 745FT 29010KT=

TAF

Ingen TAF hittades.

ENRO (07:50 UTC)

Røros flygplats

METAR

ENRO 220750Z AUTO VRB02KT 9999NDV SCT028/// 17/12 Q1008=

TAF

Ingen TAF hittades.

ENVA (07:50 UTC)

Trondheim flygplats, Værnes

METAR

ENVA 220750Z VRB01KT CAVOK 19/11 Q1007 BECMG 28010KT RMK WIND 670FT VRB02KT=

TAF

RA

ENVA 220500Z 2206/2306 VRB05KT 9999 FEW030 SCT080 BECMG 2210/2212 28010KT TEMPO 2302/2306 RADZ BKN008=

ENOL (07:50 UTC)

Ørland flygplats

METAR

ENOL 220750Z 10007KT 9999 FEW045 BKN070 16/13 Q1007 NOSIG=

TAF

RABR

ENOL 220500Z 2206/2306 12007KT 9999 FEW030 SCT060 BECMG 2209/2211 33010KT BECMG 2217/2220 VRB07KT BECMG 2223/2302 25010KT BKN014 PROB30 TEMPO 2300/2306 4000 -RADZ BR BKN008=

ENBN (07:50 UTC)

Brønnøysund flygplats, Brønnøy

METAR

ENBN 220750Z 24003KT 170V310 9999 FEW012 BKN016 16/14 Q1007=

TAF

Ingen TAF hittades.

ENBO (07:50 UTC)

Bodö flygplats

METAR

ENBO 220750Z 30003KT 9999 FEW005 SCT012 BKN018 15/12 Q1007 NOSIG=

TAF

ENBO 220500Z 2206/2306 VRB05KT 9999 FEW005 SCT040 TEMPO 2206/2209 BKN007=

ENAN (07:50 UTC)

Andøya flygplats

METAR

FG

ENAN 220750Z 33004KT 6000 2000N FG VV004 12/11 Q1007=

TAF

ENAN AAA 220751Z 2207/2306 36008KT 9999 FEW005 SCT030 TEMPO 2207/2210 2000 BCFG VV003=

ENEV (07:50 UTC)

Harstad-Narvik flygplats

METAR

ENEV 220750Z VRB01KT 9999 FEW035 BKN066 BKN084 16/13 Q1006 RMK WIND 1400FT 25007KT=

TAF

ENEV 220500Z 2206/2215 VRB05KT 9999 SCT030=

ENDU (07:50 UTC)

Bardufoss flygplats

METAR

ENDU 220750Z 28007KT 9999 FEW008 BKN014 15/14 Q1006 BECMG BKN020 RMK WIND 1100FT 33004KT WIND 2200FT 28006KT=

TAF

ENDU 220500Z 2206/2306 VRB05KT 9999 FEW005 SCT040 TEMPO 2206/2209 BKN004=

ENTC (07:50 UTC)

Tromsø flygplats

METAR

ENTC 220750Z 29005KT 260V320 9999 SCT002 BKN003 OVC004 12/11 Q1007 NOSIG RMK WIND 2600FT 25007KT=

TAF

ENTC 220500Z 2206/2306 VRB05KT 9999 FEW004 SCT040 TEMPO 2206/2209 4000 BCFG BKN003=

ENAT (07:50 UTC)

Alta flygplats

METAR

ENAT 220750Z 33011KT 9999 SCT049 20/13 Q1004 RMK WIND 700FT 36008KT=

TAF

ENAT 220500Z 2206/2215 VRB05KT 9999 SCT040 TEMPO 2206/2215 33010KT=

ENNA (07:50 UTC)

Lakselv flygplats

METAR

ENNA 220750Z AUTO 03003KT 9999 BKN110/// 21/15 Q1004 RMK WIND 1800FT VRB01KT=

TAF

TSSHRACB

ENNA 220500Z 2206/2306 VRB08KT 9999 SCT020 BKN040 TEMPO 2209/2215 4000 SHRA SCT008 BKN030CB PROB30 TEMPO 2209/2215 TSRA=

ENHF (07:50 UTC)

Hammerfest flygplats

METAR

ENHF 220750Z 26005KT 220V280 CAVOK 16/12 Q1005 RMK WIND 1254FT 25010KT=

TAF

Ingen TAF hittades.

ENKR (07:50 UTC)

Kirkenes Airport, Høybuktmoen

METAR

RA

ENKR 220750Z 16006KT 3000 +RA FEW001 BKN015 OVC024 20/19 Q1005 RERA RMK WIND 731FT 16012KT=

TAF

TSSHRACB

ENKR 220500Z 2206/2215 VRB05KT 9999 -SHRA FEW005 BKN030 TEMPO 2206/2215 16010KT 2000 SHRA SCT001 BKN030CB PROB40 TEMPO 2206/2215 TSRA=

ENLK (07:50 UTC)

Leknes Airport

METAR

ENLK 220750Z VRB02KT 9999 SCT020 15/11 Q1007=

TAF

Ingen TAF hittades.

ENST (07:50 UTC)

Sandnessjøen Airport, Stokka

METAR

ENST 220750Z 22006KT 9999 FEW010 BKN017 15/12 Q1007 RMK WIND 300FT 25005KT=

TAF

Ingen TAF hittades.

ENSB (07:50 UTC)

Svalbard Airport, Longyear

METAR

ENSB 220750Z VRB03KT 9999 FEW040 BKN080 07/04 Q1009 RMK WIND 1400FT 13010KT=

TAF

RA

ENSB 220500Z 2206/2306 12010KT 9999 -RA FEW012 BKN030 TEMPO 2206/2306 VRB05KT=